Terminal Aerodrome Forecast
Issued by NWS

Home | Current Version | Previous Version | Text Only | Print | Product List | Glossary On
Versions: 1 2 3 4 5 6 7 8 9 10 11 12
000
FTUS44 KEPZ 141126
TAFTCS
TAF
KTCS 141126Z 1412/1512 34008KT P6SM FEW250
     FM141700 04008KT P6SM FEW250
     FM150000 33010KT P6SM SCT250=

USA.gov is the U.S. government's official web portal to all federal, state and local government web resources and services.